sensor_id;sensor_type;location;lat;lon;timestamp;pressure;altitude;pressure_sealevel;temperature
13304;BMP280;6720;51.958;4.540;2022-07-18T00:01:07;102282.38;;;18.54
13304;BMP280;6720;51.958;4.540;2022-07-18T00:03:33;102282.44;;;18.51
13304;BMP280;6720;51.958;4.540;2022-07-18T00:05:58;102276.50;;;18.42
13304;BMP280;6720;51.958;4.540;2022-07-18T00:08:24;102274.09;;;18.31
13304;BMP280;6720;51.958;4.540;2022-07-18T00:10:49;102270.53;;;18.32
13304;BMP280;6720;51.958;4.540;2022-07-18T00:13:15;102271.34;;;18.36
13304;BMP280;6720;51.958;4.540;2022-07-18T00:15:40;102273.19;;;18.32
13304;BMP280;6720;51.958;4.540;2022-07-18T00:18:05;102272.22;;;18.36
13304;BMP280;6720;51.958;4.540;2022-07-18T00:20:31;102264.63;;;18.21
13304;BMP280;6720;51.958;4.540;2022-07-18T00:22:56;102269.88;;;18.24
13304;BMP280;6720;51.958;4.540;2022-07-18T00:25:22;102257.56;;;18.22
13304;BMP280;6720;51.958;4.540;2022-07-18T00:27:47;102268.13;;;18.23
13304;BMP280;6720;51.958;4.540;2022-07-18T00:30:13;102265.34;;;18.27
13304;BMP280;6720;51.958;4.540;2022-07-18T00:32:38;102262.88;;;18.22
13304;BMP280;6720;51.958;4.540;2022-07-18T00:35:04;102264.59;;;18.23
13304;BMP280;6720;51.958;4.540;2022-07-18T00:37:30;102251.53;;;18.15
13304;BMP280;6720;51.958;4.540;2022-07-18T00:39:55;102251.91;;;18.00
13304;BMP280;6720;51.958;4.540;2022-07-18T00:42:21;102252.66;;;18.06
13304;BMP280;6720;51.958;4.540;2022-07-18T00:44:46;102257.91;;;18.08
13304;BMP280;6720;51.958;4.540;2022-07-18T00:47:11;102251.78;;;18.06
13304;BMP280;6720;51.958;4.540;2022-07-18T00:49:37;102253.69;;;18.01
13304;BMP280;6720;51.958;4.540;2022-07-18T00:52:03;102258.97;;;18.01
13304;BMP280;6720;51.958;4.540;2022-07-18T00:54:28;102252.00;;;17.97
13304;BMP280;6720;51.958;4.540;2022-07-18T00:56:56;102253.69;;;18.01
13304;BMP280;6720;51.958;4.540;2022-07-18T00:59:22;102257.38;;;17.94
13304;BMP280;6720;51.958;4.540;2022-07-18T01:01:47;102252.81;;;17.99
13304;BMP280;6720;51.958;4.540;2022-07-18T01:04:21;102256.31;;;18.01
13304;BMP280;6720;51.958;4.540;2022-07-18T01:06:48;102245.25;;;17.84
13304;BMP280;6720;51.958;4.540;2022-07-18T01:09:15;102248.75;;;17.86
13304;BMP280;6720;51.958;4.540;2022-07-18T01:11:41;102247.88;;;17.85
13304;BMP280;6720;51.958;4.540;2022-07-18T01:14:06;102249.56;;;17.88
13304;BMP280;6720;51.958;4.540;2022-07-18T01:16:33;102245.13;;;17.90
13304;BMP280;6720;51.958;4.540;2022-07-18T01:18:59;102241.63;;;17.88
13304;BMP280;6720;51.958;4.540;2022-07-18T01:21:24;102239.88;;;17.87
13304;BMP280;6720;51.958;4.540;2022-07-18T01:23:50;102239.81;;;17.90
13304;BMP280;6720;51.958;4.540;2022-07-18T01:26:16;102237.97;;;17.92
13304;BMP280;6720;51.958;4.540;2022-07-18T01:28:42;102245.13;;;17.90
13304;BMP280;6720;51.958;4.540;2022-07-18T01:31:08;102243.47;;;17.86
13304;BMP280;6720;51.958;4.540;2022-07-18T01:33:34;102245.16;;;17.88
13304;BMP280;6720;51.958;4.540;2022-07-18T01:36:00;102246.03;;;17.89
13304;BMP280;6720;51.958;4.540;2022-07-18T01:38:29;102247.78;;;17.90
13304;BMP280;6720;51.958;4.540;2022-07-18T01:40:56;102221.56;;;17.78
13304;BMP280;6720;51.958;4.540;2022-07-18T01:43:25;102229.44;;;17.81
13304;BMP280;6720;51.958;4.540;2022-07-18T01:45:50;102231.09;;;17.85
13304;BMP280;6720;51.958;4.540;2022-07-18T01:48:16;102235.53;;;17.84
13304;BMP280;6720;51.958;4.540;2022-07-18T01:50:41;102233.63;;;17.89
13304;BMP280;6720;51.958;4.540;2022-07-18T01:53:07;102230.28;;;17.83
13304;BMP280;6720;51.958;4.540;2022-07-18T01:55:32;102231.09;;;17.85
13304;BMP280;6720;51.958;4.540;2022-07-18T01:57:57;102228.44;;;17.85
13304;BMP280;6720;51.958;4.540;2022-07-18T02:00:23;102225.78;;;17.85
13304;BMP280;6720;51.958;4.540;2022-07-18T02:02:48;102213.69;;;17.75
13304;BMP280;6720;51.958;4.540;2022-07-18T02:05:14;102227.91;;;17.72
13304;BMP280;6720;51.958;4.540;2022-07-18T02:07:41;102224.38;;;17.72
13304;BMP280;6720;51.958;4.540;2022-07-18T02:10:09;102219.03;;;17.73
13304;BMP280;6720;51.958;4.540;2022-07-18T02:12:36;102211.97;;;17.74
13304;BMP280;6720;51.958;4.540;2022-07-18T02:15:03;102208.53;;;17.69
13304;BMP280;6720;51.958;4.540;2022-07-18T02:17:29;102203.16;;;17.72
13304;BMP280;6720;51.958;4.540;2022-07-18T02:19:55;102202.28;;;17.71
13304;BMP280;6720;51.958;4.540;2022-07-18T02:22:20;102203.16;;;17.72
13304;BMP280;6720;51.958;4.540;2022-07-18T02:24:45;102199.78;;;17.67
13304;BMP280;6720;51.958;4.540;2022-07-18T02:27:11;102197.19;;;17.64
13304;BMP280;6720;51.958;4.540;2022-07-18T02:29:37;102195.53;;;17.60
13304;BMP280;6720;51.958;4.540;2022-07-18T02:32:03;102191.16;;;17.59
13304;BMP280;6720;51.958;4.540;2022-07-18T02:34:28;102189.47;;;17.55
13304;BMP280;6720;51.958;4.540;2022-07-18T02:36:54;102179.81;;;17.52
13304;BMP280;6720;51.958;4.540;2022-07-18T02:39:20;102184.31;;;17.49
13304;BMP280;6720;51.958;4.540;2022-07-18T02:41:46;102179.03;;;17.49
13304;BMP280;6720;51.958;4.540;2022-07-18T02:44:11;102184.38;;;17.46
13304;BMP280;6720;51.958;4.540;2022-07-18T02:46:37;102184.44;;;17.43
13304;BMP280;6720;51.958;4.540;2022-07-18T02:49:02;102185.38;;;17.42
13304;BMP280;6720;51.958;4.540;2022-07-18T02:51:28;102183.72;;;17.35
13304;BMP280;6720;51.958;4.540;2022-07-18T02:53:54;102192.66;;;17.31
13304;BMP280;6720;51.958;4.540;2022-07-18T02:56:19;102175.06;;;17.28
13304;BMP280;6720;51.958;4.540;2022-07-18T02:58:46;102182.16;;;17.26
13304;BMP280;6720;51.958;4.540;2022-07-18T03:01:11;102176.88;;;17.26
13304;BMP280;6720;51.958;4.540;2022-07-18T03:03:37;102176.88;;;17.26
13304;BMP280;6720;51.958;4.540;2022-07-18T03:06:02;102175.91;;;17.30
13304;BMP280;6720;51.958;4.540;2022-07-18T03:08:28;102175.09;;;17.27
13304;BMP280;6720;51.958;4.540;2022-07-18T03:10:53;102170.78;;;17.23
13304;BMP280;6720;51.958;4.540;2022-07-18T03:13:18;102179.72;;;17.17
13304;BMP280;6720;51.958;4.540;2022-07-18T03:15:44;102176.31;;;17.14
13304;BMP280;6720;51.958;4.540;2022-07-18T03:18:09;102171.00;;;17.14
13304;BMP280;6720;51.958;4.540;2022-07-18T03:20:34;102171.06;;;17.11
13304;BMP280;6720;51.958;4.540;2022-07-18T03:23:06;102169.41;;;17.07
13304;BMP280;6720;51.958;4.540;2022-07-18T03:25:32;102165.06;;;17.04
13304;BMP280;6720;51.958;4.540;2022-07-18T03:27:57;102160.72;;;17.00
13304;BMP280;6720;51.958;4.540;2022-07-18T03:30:23;102155.38;;;17.02
13304;BMP280;6720;51.958;4.540;2022-07-18T03:32:48;102147.28;;;17.09
13304;BMP280;6720;51.958;4.540;2022-07-18T03:35:14;102151.53;;;17.16
13304;BMP280;6720;51.958;4.540;2022-07-18T03:37:40;102141.63;;;17.24
13304;BMP280;6720;51.958;4.540;2022-07-18T03:40:05;102130.84;;;17.32
13304;BMP280;6720;51.958;4.540;2022-07-18T03:42:31;102146.56;;;17.41
13304;BMP280;6720;51.958;4.540;2022-07-18T03:44:57;102138.72;;;17.35
13304;BMP280;6720;51.958;4.540;2022-07-18T03:47:22;102143.00;;;17.42
13304;BMP280;6720;51.958;4.540;2022-07-18T03:49:48;102139.53;;;17.38
13304;BMP280;6720;51.958;4.540;2022-07-18T03:52:13;102142.72;;;17.52
13304;BMP280;6720;51.958;4.540;2022-07-18T03:54:39;102144.91;;;17.35
13304;BMP280;6720;51.958;4.540;2022-07-18T03:57:04;102143.41;;;17.24
13304;BMP280;6720;51.958;4.540;2022-07-18T03:59:30;102141.06;;;17.10
13304;BMP280;6720;51.958;4.540;2022-07-18T04:01:55;102134.00;;;17.11
13304;BMP280;6720;51.958;4.540;2022-07-18T04:04:20;102132.34;;;17.07
13304;BMP280;6720;51.958;4.540;2022-07-18T04:06:46;102132.28;;;17.10
13304;BMP280;6720;51.958;4.540;2022-07-18T04:09:12;102140.09;;;17.14
13304;BMP280;6720;51.958;4.540;2022-07-18T04:11:37;102130.34;;;17.16
13304;BMP280;6720;51.958;4.540;2022-07-18T04:14:02;102130.31;;;17.18
13304;BMP280;6720;51.958;4.540;2022-07-18T04:16:28;102132.06;;;17.19
13304;BMP280;6720;51.958;4.540;2022-07-18T04:18:53;102132.97;;;17.18
13304;BMP280;6720;51.958;4.540;2022-07-18T04:21:19;102129.44;;;17.17
13304;BMP280;6720;51.958;4.540;2022-07-18T04:23:44;102110.19;;;17.11
13304;BMP280;6720;51.958;4.540;2022-07-18T04:26:10;102120.63;;;17.17
13304;BMP280;6720;51.958;4.540;2022-07-18T04:28:36;102127.47;;;17.25
13304;BMP280;6720;51.958;4.540;2022-07-18T04:31:01;102129.19;;;17.28
13304;BMP280;6720;51.958;4.540;2022-07-18T04:33:27;102127.44;;;17.27
13304;BMP280;6720;51.958;4.540;2022-07-18T04:35:52;102121.34;;;17.25
13304;BMP280;6720;51.958;4.540;2022-07-18T04:38:18;102124.88;;;17.24
13304;BMP280;6720;51.958;4.540;2022-07-18T04:40:43;102123.00;;;17.29
13304;BMP280;6720;51.958;4.540;2022-07-18T04:43:08;102119.50;;;17.27
13304;BMP280;6720;51.958;4.540;2022-07-18T04:45:34;102119.50;;;17.27
13304;BMP280;6720;51.958;4.540;2022-07-18T04:48:01;102120.19;;;17.35
13304;BMP280;6720;51.958;4.540;2022-07-18T04:50:26;102123.69;;;17.37
13304;BMP280;6720;51.958;4.540;2022-07-18T04:52:55;102133.31;;;17.41
13304;BMP280;6720;51.958;4.540;2022-07-18T04:55:21;102143.00;;;17.40
13304;BMP280;6720;51.958;4.540;2022-07-18T04:57:47;102138.66;;;17.38
13304;BMP280;6720;51.958;4.540;2022-07-18T05:00:19;102136.91;;;17.37
13304;BMP280;6720;51.958;4.540;2022-07-18T05:02:47;102130.81;;;17.33
13304;BMP280;6720;51.958;4.540;2022-07-18T05:05:15;102133.56;;;17.30
13304;BMP280;6720;51.958;4.540;2022-07-18T05:07:42;102134.28;;;17.37
13304;BMP280;6720;51.958;4.540;2022-07-18T05:10:09;102143.91;;;17.41
13304;BMP280;6720;51.958;4.540;2022-07-18T05:12:35;102143.00;;;17.40
13304;BMP280;6720;51.958;4.540;2022-07-18T05:15:03;102142.09;;;17.43
13304;BMP280;6720;51.958;4.540;2022-07-18T05:17:29;102136.66;;;17.49
13304;BMP280;6720;51.958;4.540;2022-07-18T05:19:54;102133.69;;;17.61
13304;BMP280;6720;51.958;4.540;2022-07-18T05:22:20;102135.53;;;17.59
13304;BMP280;6720;51.958;4.540;2022-07-18T05:24:45;102135.34;;;17.65
13304;BMP280;6720;51.958;4.540;2022-07-18T05:27:10;102129.44;;;17.89
13304;BMP280;6720;51.958;4.540;2022-07-18T05:29:36;102135.50;;;17.92
13304;BMP280;6720;51.958;4.540;2022-07-18T05:32:01;102140.44;;;18.06
13304;BMP280;6720;51.958;4.540;2022-07-18T05:34:27;102137.06;;;18.01
13304;BMP280;6720;51.958;4.540;2022-07-18T05:36:53;102131.69;;;18.04
13304;BMP280;6720;51.958;4.540;2022-07-18T05:39:20;102134.88;;;18.15
13304;BMP280;6720;51.958;4.540;2022-07-18T05:41:45;102127.41;;;18.29
13304;BMP280;6720;51.958;4.540;2022-07-18T05:44:11;102134.16;;;18.42
13304;BMP280;6720;51.958;4.540;2022-07-18T05:46:36;102124.41;;;18.43
13304;BMP280;6720;51.958;4.540;2022-07-18T05:49:02;102121.78;;;18.41
13304;BMP280;6720;51.958;4.540;2022-07-18T05:51:27;102130.22;;;18.55
13304;BMP280;6720;51.958;4.540;2022-07-18T05:53:56;102119.09;;;18.73
13304;BMP280;6720;51.958;4.540;2022-07-18T05:56:25;102120.59;;;18.82
13304;BMP280;6720;51.958;4.540;2022-07-18T05:58:50;102109.25;;;19.04
13304;BMP280;6720;51.958;4.540;2022-07-18T06:01:16;102107.44;;;19.06
13304;BMP280;6720;51.958;4.540;2022-07-18T06:03:46;102106.00;;;19.22
13304;BMP280;6720;51.958;4.540;2022-07-18T06:06:12;102106.06;;;19.21
13304;BMP280;6720;51.958;4.540;2022-07-18T06:08:37;102110.34;;;19.26
13304;BMP280;6720;51.958;4.540;2022-07-18T06:11:02;102112.34;;;19.46
13304;BMP280;6720;51.958;4.540;2022-07-18T06:13:30;102099.22;;;19.41
13304;BMP280;6720;51.958;4.540;2022-07-18T06:15:55;102101.13;;;19.62
13304;BMP280;6720;51.958;4.540;2022-07-18T06:18:20;102108.47;;;19.80
13304;BMP280;6720;51.958;4.540;2022-07-18T06:20:46;102097.94;;;19.77
13304;BMP280;6720;51.958;4.540;2022-07-18T06:23:11;102095.63;;;19.93
13304;BMP280;6720;51.958;4.540;2022-07-18T06:25:37;102093.63;;;19.99
13304;BMP280;6720;51.958;4.540;2022-07-18T06:28:02;102096.47;;;20.19
13304;BMP280;6720;51.958;4.540;2022-07-18T06:30:27;102100.69;;;20.00
13304;BMP280;6720;51.958;4.540;2022-07-18T06:32:53;102094.72;;;20.18
13304;BMP280;6720;51.958;4.540;2022-07-18T06:35:18;102098.56;;;20.11
13304;BMP280;6720;51.958;4.540;2022-07-18T06:37:43;102090.69;;;20.31
13304;BMP280;6720;51.958;4.540;2022-07-18T06:40:09;102091.84;;;20.70
13304;BMP280;6720;51.958;4.540;2022-07-18T06:42:35;102101.75;;;20.67
13304;BMP280;6720;51.958;4.540;2022-07-18T06:45:00;102104.63;;;20.61
13304;BMP280;6720;51.958;4.540;2022-07-18T06:47:26;102098.09;;;20.69
13304;BMP280;6720;51.958;4.540;2022-07-18T06:49:51;102099.66;;;20.98
13304;BMP280;6720;51.958;4.540;2022-07-18T06:52:17;102097.38;;;20.87
13304;BMP280;6720;51.958;4.540;2022-07-18T06:54:42;102105.09;;;20.95
13304;BMP280;6720;51.958;4.540;2022-07-18T06:57:08;102099.88;;;20.92
13304;BMP280;6720;51.958;4.540;2022-07-18T06:59:34;102104.81;;;21.02
13304;BMP280;6720;51.958;4.540;2022-07-18T07:02:00;102105.59;;;21.04
13304;BMP280;6720;51.958;4.540;2022-07-18T07:04:25;102100.25;;;21.26
13304;BMP280;6720;51.958;4.540;2022-07-18T07:06:51;102103.03;;;21.44
13304;BMP280;6720;51.958;4.540;2022-07-18T07:09:16;102097.25;;;21.55
13304;BMP280;6720;51.958;4.540;2022-07-18T07:11:41;102093.72;;;21.54
13304;BMP280;6720;51.958;4.540;2022-07-18T07:14:07;102098.34;;;21.71
13304;BMP280;6720;51.958;4.540;2022-07-18T07:16:32;102087.31;;;21.80
13304;BMP280;6720;51.958;4.540;2022-07-18T07:18:58;102092.56;;;22.02
13304;BMP280;6720;51.958;4.540;2022-07-18T07:21:23;102096.97;;;21.83
13304;BMP280;6720;51.958;4.540;2022-07-18T07:23:48;102079.38;;;21.79
13304;BMP280;6720;51.958;4.540;2022-07-18T07:26:14;102106.22;;;21.94
13304;BMP280;6720;51.958;4.540;2022-07-18T07:28:39;102098.44;;;21.90
13304;BMP280;6720;51.958;4.540;2022-07-18T07:31:05;102090.22;;;21.94
13304;BMP280;6720;51.958;4.540;2022-07-18T07:33:31;102080.91;;;22.04
13304;BMP280;6720;51.958;4.540;2022-07-18T07:35:56;102091.75;;;22.00
13304;BMP280;6720;51.958;4.540;2022-07-18T07:38:22;102086.75;;;22.32
13304;BMP280;6720;51.958;4.540;2022-07-18T07:40:53;102093.56;;;22.58
13304;BMP280;6720;51.958;4.540;2022-07-18T07:43:18;102095.59;;;22.53
13304;BMP280;6720;51.958;4.540;2022-07-18T07:45:46;102093.56;;;22.58
13304;BMP280;6720;51.958;4.540;2022-07-18T07:48:13;102087.34;;;22.57
13304;BMP280;6720;51.958;4.540;2022-07-18T07:50:39;102086.28;;;22.80
13304;BMP280;6720;51.958;4.540;2022-07-18T07:53:04;102097.00;;;22.97
13304;BMP280;6720;51.958;4.540;2022-07-18T07:55:30;102074.66;;;22.81
13304;BMP280;6720;51.958;4.540;2022-07-18T07:57:56;102096.72;;;23.03
13304;BMP280;6720;51.958;4.540;2022-07-18T08:00:22;102082.13;;;23.10
13304;BMP280;6720;51.958;4.540;2022-07-18T08:02:55;102092.81;;;23.10
13304;BMP280;6720;51.958;4.540;2022-07-18T08:05:21;102078.50;;;23.11
13304;BMP280;6720;51.958;4.540;2022-07-18T08:07:47;102087.84;;;23.21
13304;BMP280;6720;51.958;4.540;2022-07-18T08:10:13;102083.53;;;23.35
13304;BMP280;6720;51.958;4.540;2022-07-18T08:12:38;102089.91;;;23.50
13304;BMP280;6720;51.958;4.540;2022-07-18T08:15:04;102087.16;;;23.51
13304;BMP280;6720;51.958;4.540;2022-07-18T08:17:29;102082.53;;;23.72
13304;BMP280;6720;51.958;4.540;2022-07-18T08:19:55;102082.28;;;23.59
13304;BMP280;6720;51.958;4.540;2022-07-18T08:22:20;102087.66;;;23.76
13304;BMP280;6720;51.958;4.540;2022-07-18T08:24:45;102082.38;;;23.75
13304;BMP280;6720;51.958;4.540;2022-07-18T08:27:11;102071.53;;;23.78
13304;BMP280;6720;51.958;4.540;2022-07-18T08:29:36;102077.03;;;23.75
13304;BMP280;6720;51.958;4.540;2022-07-18T08:32:02;102079.41;;;23.98
13304;BMP280;6720;51.958;4.540;2022-07-18T08:34:27;102083.56;;;24.03
13304;BMP280;6720;51.958;4.540;2022-07-18T08:36:52;102076.50;;;24.02
13304;BMP280;6720;51.958;4.540;2022-07-18T08:39:18;102073.72;;;24.04
13304;BMP280;6720;51.958;4.540;2022-07-18T08:41:44;102079.28;;;24.16
13304;BMP280;6720;51.958;4.540;2022-07-18T08:44:13;102076.88;;;24.12
13304;BMP280;6720;51.958;4.540;2022-07-18T08:46:44;102079.16;;;24.35
13304;BMP280;6720;51.958;4.540;2022-07-18T08:49:13;102069.50;;;24.32
13304;BMP280;6720;51.958;4.540;2022-07-18T08:51:38;102079.59;;;24.43
13304;BMP280;6720;51.958;4.540;2022-07-18T08:54:04;102070.00;;;24.72
13304;BMP280;6720;51.958;4.540;2022-07-18T08:56:29;102070.97;;;24.53
13304;BMP280;6720;51.958;4.540;2022-07-18T08:58:55;102072.59;;;24.56
13304;BMP280;6720;51.958;4.540;2022-07-18T09:01:20;102068.13;;;24.56
13304;BMP280;6720;51.958;4.540;2022-07-18T09:03:46;102070.59;;;24.77
13304;BMP280;6720;51.958;4.540;2022-07-18T09:06:43;102081.81;;;25.30
13304;BMP280;6720;51.958;4.540;2022-07-18T09:09:11;102079.47;;;25.08
13304;BMP280;6720;51.958;4.540;2022-07-18T09:11:36;102077.41;;;25.13
13304;BMP280;6720;51.958;4.540;2022-07-18T09:14:02;102085.66;;;25.55
13304;BMP280;6720;51.958;4.540;2022-07-18T09:16:27;102078.72;;;25.81
13304;BMP280;6720;51.958;4.540;2022-07-18T09:18:53;102079.50;;;25.83
13304;BMP280;6720;51.958;4.540;2022-07-18T09:21:20;102081.00;;;26.16
13304;BMP280;6720;51.958;4.540;2022-07-18T09:23:49;102087.75;;;26.23
13304;BMP280;6720;51.958;4.540;2022-07-18T09:26:40;102078.16;;;26.19
13304;BMP280;6720;51.958;4.540;2022-07-18T09:29:06;102077.28;;;26.47
13304;BMP280;6720;51.958;4.540;2022-07-18T09:31:32;102076.13;;;26.51
13304;BMP280;6720;51.958;4.540;2022-07-18T09:33:59;102077.34;;;26.73
13304;BMP280;6720;51.958;4.540;2022-07-18T09:36:26;102069.78;;;27.06
13304;BMP280;6720;51.958;4.540;2022-07-18T09:38:52;102068.78;;;27.60
13304;BMP280;6720;51.958;4.540;2022-07-18T09:41:23;102071.56;;;27.86
13304;BMP280;6720;51.958;4.540;2022-07-18T09:43:48;102075.00;;;28.00
13304;BMP280;6720;51.958;4.540;2022-07-18T09:46:14;102060.16;;;28.45
13304;BMP280;6720;51.958;4.540;2022-07-18T09:48:39;102068.84;;;28.97
13304;BMP280;6720;51.958;4.540;2022-07-18T09:51:06;102075.25;;;29.19
13304;BMP280;6720;51.958;4.540;2022-07-18T09:53:32;102068.63;;;29.47
13304;BMP280;6720;51.958;4.540;2022-07-18T09:56:04;102072.94;;;28.90
13304;BMP280;6720;51.958;4.540;2022-07-18T09:58:31;102075.94;;;29.10
13304;BMP280;6720;51.958;4.540;2022-07-18T10:01:00;102075.63;;;29.73
13304;BMP280;6720;51.958;4.540;2022-07-18T10:03:27;102074.41;;;29.77
13304;BMP280;6720;51.958;4.540;2022-07-18T10:05:59;102071.31;;;30.27
13304;BMP280;6720;51.958;4.540;2022-07-18T10:08:30;102070.56;;;30.80
13304;BMP280;6720;51.958;4.540;2022-07-18T10:10:58;102072.53;;;30.23
13304;BMP280;6720;51.958;4.540;2022-07-18T10:13:28;102071.25;;;30.05
13304;BMP280;6720;51.958;4.540;2022-07-18T10:15:54;102067.63;;;30.72
13304;BMP280;6720;51.958;4.540;2022-07-18T10:18:22;102076.13;;;31.21
13304;BMP280;6720;51.958;4.540;2022-07-18T10:23:42;102080.03;;;31.39
13304;BMP280;6720;51.958;4.540;2022-07-18T10:26:18;102084.97;;;31.55
13304;BMP280;6720;51.958;4.540;2022-07-18T10:37:21;102075.56;;;32.31
13304;BMP280;6720;51.958;4.540;2022-07-18T10:39:20;102079.50;;;32.27
13304;BMP280;6720;51.958;4.540;2022-07-18T10:57:27;102076.66;;;34.13
13304;BMP280;6720;51.958;4.540;2022-07-18T11:21:31;102065.16;;;34.38
13304;BMP280;6720;51.958;4.540;2022-07-18T11:24:00;102059.63;;;34.11
13304;BMP280;6720;51.958;4.540;2022-07-18T11:26:27;102060.63;;;34.83
13304;BMP280;6720;51.958;4.540;2022-07-18T11:29:01;102063.88;;;34.23
13304;BMP280;6720;51.958;4.540;2022-07-18T11:31:27;102060.00;;;34.89
13304;BMP280;6720;51.958;4.540;2022-07-18T11:33:55;102059.94;;;35.43
13304;BMP280;6720;51.958;4.540;2022-07-18T11:36:27;102057.28;;;34.89
13304;BMP280;6720;51.958;4.540;2022-07-18T11:38:56;102053.34;;;35.96
13304;BMP280;6720;51.958;4.540;2022-07-18T11:41:22;102061.44;;;35.63
13304;BMP280;6720;51.958;4.540;2022-07-18T11:43:49;102053.28;;;36.31
13304;BMP280;6720;51.958;4.540;2022-07-18T11:46:17;102056.19;;;35.44
13304;BMP280;6720;51.958;4.540;2022-07-18T11:48:45;102050.28;;;35.74
13304;BMP280;6720;51.958;4.540;2022-07-18T11:51:13;102048.00;;;35.87
13304;BMP280;6720;51.958;4.540;2022-07-18T11:53:43;102048.53;;;34.95
13304;BMP280;6720;51.958;4.540;2022-07-18T11:56:09;102041.03;;;35.67
13304;BMP280;6720;51.958;4.540;2022-07-18T11:58:36;102041.88;;;36.10
13304;BMP280;6720;51.958;4.540;2022-07-18T12:01:03;102034.78;;;35.92
13304;BMP280;6720;51.958;4.540;2022-07-18T12:03:29;102034.69;;;35.41
13304;BMP280;6720;51.958;4.540;2022-07-18T12:05:55;102052.13;;;35.48
13304;BMP280;6720;51.958;4.540;2022-07-18T12:08:27;102043.66;;;34.89
13304;BMP280;6720;51.958;4.540;2022-07-18T12:11:33;102018.84;;;36.13
13304;BMP280;6720;51.958;4.540;2022-07-18T12:16:39;102033.88;;;35.66
13304;BMP280;6720;51.958;4.540;2022-07-18T12:19:15;102036.75;;;34.94
13304;BMP280;6720;51.958;4.540;2022-07-18T12:22:08;102028.34;;;36.01
13304;BMP280;6720;51.958;4.540;2022-07-18T12:24:51;102030.72;;;35.96
13304;BMP280;6720;51.958;4.540;2022-07-18T12:30:18;102023.03;;;36.25
13304;BMP280;6720;51.958;4.540;2022-07-18T12:32:47;102027.22;;;35.43
13304;BMP280;6720;51.958;4.540;2022-07-18T12:35:20;102017.97;;;36.30
13304;BMP280;6720;51.958;4.540;2022-07-18T12:38:01;102023.41;;;35.36
13304;BMP280;6720;51.958;4.540;2022-07-18T12:43:09;102016.66;;;36.42
13304;BMP280;6720;51.958;4.540;2022-07-18T12:45:36;102016.22;;;36.29
13304;BMP280;6720;51.958;4.540;2022-07-18T12:48:02;102013.63;;;35.94
13304;BMP280;6720;51.958;4.540;2022-07-18T12:50:28;102013.25;;;37.94
13304;BMP280;6720;51.958;4.540;2022-07-18T12:52:53;102010.56;;;37.38
13304;BMP280;6720;51.958;4.540;2022-07-18T12:55:19;102004.34;;;37.92
13304;BMP280;6720;51.958;4.540;2022-07-18T12:57:45;101999.34;;;38.19
13304;BMP280;6720;51.958;4.540;2022-07-18T13:00:11;101999.13;;;38.29
13304;BMP280;6720;51.958;4.540;2022-07-18T13:02:36;102001.75;;;37.98
13304;BMP280;6720;51.958;4.540;2022-07-18T13:05:02;101998.91;;;38.38
13304;BMP280;6720;51.958;4.540;2022-07-18T13:07:27;102000.84;;;37.35
13304;BMP280;6720;51.958;4.540;2022-07-18T13:09:53;102001.81;;;37.82
13304;BMP280;6720;51.958;4.540;2022-07-18T13:12:18;101992.16;;;38.18
13304;BMP280;6720;51.958;4.540;2022-07-18T13:14:44;101990.63;;;38.54
13304;BMP280;6720;51.958;4.540;2022-07-18T13:17:09;101974.94;;;38.48
13304;BMP280;6720;51.958;4.540;2022-07-18T13:19:34;101987.50;;;37.48
13304;BMP280;6720;51.958;4.540;2022-07-18T13:22:00;101986.22;;;37.99
13304;BMP280;6720;51.958;4.540;2022-07-18T13:24:25;101987.94;;;38.77
13304;BMP280;6720;51.958;4.540;2022-07-18T13:26:51;101986.66;;;38.87
13304;BMP280;6720;51.958;4.540;2022-07-18T13:29:16;101982.44;;;39.07
13304;BMP280;6720;51.958;4.540;2022-07-18T13:31:43;101979.44;;;40.06
13304;BMP280;6720;51.958;4.540;2022-07-18T13:34:08;101986.84;;;39.16
13304;BMP280;6720;51.958;4.540;2022-07-18T13:36:33;101977.69;;;39.75
13304;BMP280;6720;51.958;4.540;2022-07-18T13:38:59;101980.16;;;39.33
13304;BMP280;6720;51.958;4.540;2022-07-18T13:41:27;101985.81;;;39.32
13304;BMP280;6720;51.958;4.540;2022-07-18T13:43:52;101983.53;;;38.98
13304;BMP280;6720;51.958;4.540;2022-07-18T13:46:18;101977.53;;;38.72
13304;BMP280;6720;51.958;4.540;2022-07-18T13:48:43;101968.19;;;37.50
13304;BMP280;6720;51.958;4.540;2022-07-18T13:51:09;101980.38;;;38.56
13304;BMP280;6720;51.958;4.540;2022-07-18T13:53:35;101971.66;;;37.98
13304;BMP280;6720;51.958;4.540;2022-07-18T13:56:00;101974.91;;;39.09
13304;BMP280;6720;51.958;4.540;2022-07-18T13:58:26;101969.97;;;39.94
13304;BMP280;6720;51.958;4.540;2022-07-18T14:00:51;101965.53;;;36.60
13304;BMP280;6720;51.958;4.540;2022-07-18T14:03:17;101966.09;;;38.30
13304;BMP280;6720;51.958;4.540;2022-07-18T14:05:42;101967.97;;;38.99
13304;BMP280;6720;51.958;4.540;2022-07-18T14:08:08;101965.41;;;38.97
13304;BMP280;6720;51.958;4.540;2022-07-18T14:10:35;101949.78;;;38.75
13304;BMP280;6720;51.958;4.540;2022-07-18T14:13:01;101945.88;;;39.37
13304;BMP280;6720;51.958;4.540;2022-07-18T14:15:26;101959.06;;;37.89
13304;BMP280;6720;51.958;4.540;2022-07-18T14:17:52;101948.34;;;38.26
13304;BMP280;6720;51.958;4.540;2022-07-18T14:20:18;101950.59;;;39.06
13304;BMP280;6720;51.958;4.540;2022-07-18T14:22:44;101942.72;;;38.81
13304;BMP280;6720;51.958;4.540;2022-07-18T14:25:13;101933.88;;;38.02
13304;BMP280;6720;51.958;4.540;2022-07-18T14:27:39;101938.81;;;38.75
13304;BMP280;6720;51.958;4.540;2022-07-18T14:30:06;101949.78;;;38.75
13304;BMP280;6720;51.958;4.540;2022-07-18T14:32:32;101943.00;;;39.53
13304;BMP280;6720;51.958;4.540;2022-07-18T14:34:58;101936.19;;;39.64
13304;BMP280;6720;51.958;4.540;2022-07-18T14:37:23;101946.28;;;38.81
13304;BMP280;6720;51.958;4.540;2022-07-18T14:39:48;101943.88;;;38.86
13304;BMP280;6720;51.958;4.540;2022-07-18T14:42:14;101940.53;;;37.45
13304;BMP280;6720;51.958;4.540;2022-07-18T14:44:39;101933.91;;;38.40
13304;BMP280;6720;51.958;4.540;2022-07-18T14:47:05;101931.75;;;37.57
13304;BMP280;6720;51.958;4.540;2022-07-18T14:49:31;101936.91;;;37.52
13304;BMP280;6720;51.958;4.540;2022-07-18T14:51:57;101938.31;;;38.72
13304;BMP280;6720;51.958;4.540;2022-07-18T14:54:23;101939.44;;;38.24
13304;BMP280;6720;51.958;4.540;2022-07-18T14:56:52;101935.91;;;37.13
13304;BMP280;6720;51.958;4.540;2022-07-18T14:59:18;101934.97;;;38.31
13304;BMP280;6720;51.958;4.540;2022-07-18T15:01:44;101931.88;;;37.88